createdAt,value
2023-05-14T00:00:53.392Z,12.82
2023-05-14T00:03:21.464Z,12.81
2023-05-14T00:05:49.485Z,12.68
2023-05-14T00:08:17.414Z,12.60
2023-05-14T00:10:45.731Z,12.71
2023-05-14T00:13:13.706Z,12.69
2023-05-14T00:15:41.771Z,12.90
2023-05-14T00:18:12.543Z,12.90
2023-05-14T00:20:41.269Z,12.98
2023-05-14T00:23:09.519Z,12.87
2023-05-14T00:25:37.645Z,13.06
2023-05-14T00:28:05.727Z,13.02
2023-05-14T00:30:33.824Z,13.05
2023-05-14T00:33:01.816Z,12.99
2023-05-14T00:35:29.774Z,13.06
2023-05-14T00:37:57.986Z,13.04
2023-05-14T00:40:27.810Z,13.09
2023-05-14T00:42:56.672Z,12.94
2023-05-14T00:45:24.739Z,12.87
2023-05-14T00:47:54.281Z,12.68
2023-05-14T00:50:23.015Z,12.69
2023-05-14T00:52:51.617Z,12.54
2023-05-14T00:55:20.116Z,12.73
2023-05-14T00:57:48.438Z,12.70
2023-05-14T01:00:16.817Z,12.78
2023-05-14T01:02:44.782Z,12.71
2023-05-14T01:05:13.201Z,12.67
2023-05-14T01:07:41.356Z,12.75
2023-05-14T01:10:16.160Z,12.81
2023-05-14T01:12:59.775Z,12.78
2023-05-14T01:15:32.260Z,12.84
2023-05-14T01:18:05.056Z,12.73
2023-05-14T01:20:33.069Z,12.77
2023-05-14T01:23:01.020Z,12.73
2023-05-14T01:25:29.921Z,12.76
2023-05-14T01:28:20.862Z,12.81
2023-05-14T01:30:58.636Z,12.60
2023-05-14T01:33:29.632Z,12.53
2023-05-14T01:35:58.805Z,12.55
2023-05-14T01:38:30.934Z,12.59
2023-05-14T01:41:00.354Z,12.66
2023-05-14T01:43:29.444Z,12.61
2023-05-14T01:45:57.623Z,12.75
2023-05-14T01:48:26.198Z,12.76
2023-05-14T01:50:54.221Z,12.49
2023-05-14T01:53:22.209Z,12.66
2023-05-14T01:55:50.174Z,12.74
2023-05-14T01:58:18.538Z,12.75
2023-05-14T02:00:46.506Z,12.80
2023-05-14T02:03:14.329Z,12.84
2023-05-14T02:05:42.171Z,12.72
2023-05-14T02:08:10.062Z,12.83
2023-05-14T02:10:38.684Z,12.93
2023-05-14T02:13:06.790Z,12.74
2023-05-14T02:15:34.668Z,12.84
2023-05-14T02:18:02.886Z,12.69
2023-05-14T02:20:30.778Z,12.22
2023-05-14T02:22:58.816Z,12.34
2023-05-14T02:25:26.704Z,12.18
2023-05-14T02:27:54.608Z,12.16
2023-05-14T02:30:23.002Z,12.34
2023-05-14T02:32:51.321Z,12.29
2023-05-14T02:35:19.301Z,12.32
2023-05-14T02:37:47.170Z,12.32
2023-05-14T02:40:15.242Z,12.35
2023-05-14T02:42:43.247Z,12.35
2023-05-14T02:45:11.151Z,12.32
2023-05-14T02:47:39.054Z,12.37
2023-05-14T02:50:07.665Z,12.31
2023-05-14T02:54:30.569Z,12.33
2023-05-14T02:56:58.862Z,11.93
2023-05-14T02:59:27.418Z,11.92
2023-05-14T03:01:55.795Z,11.95
2023-05-14T03:04:24.243Z,11.76
2023-05-14T03:06:52.105Z,11.53
2023-05-14T03:09:20.444Z,11.42
2023-05-14T03:11:48.514Z,11.45
2023-05-14T03:14:16.351Z,11.55
2023-05-14T03:16:44.374Z,11.66
2023-05-14T03:19:13.094Z,11.74
2023-05-14T03:21:41.394Z,11.73
2023-05-14T03:24:09.417Z,11.75
2023-05-14T03:26:37.754Z,11.70
2023-05-14T03:29:05.786Z,11.71
2023-05-14T03:31:33.743Z,11.68
2023-05-14T03:34:01.586Z,11.64
2023-05-14T03:36:29.767Z,11.68
2023-05-14T03:38:57.568Z,11.72
2023-05-14T03:41:26.392Z,11.45
2023-05-14T03:43:54.484Z,11.22
2023-05-14T03:46:22.440Z,11.28
2023-05-14T03:48:50.579Z,11.51
2023-05-14T03:51:18.835Z,11.59
2023-05-14T03:53:46.941Z,11.56
2023-05-14T03:56:15.250Z,11.58
2023-05-14T03:58:43.796Z,11.71
2023-05-14T04:01:11.768Z,11.81
2023-05-14T04:03:42.868Z,11.91
2023-05-14T04:06:11.590Z,11.93
2023-05-14T04:08:39.787Z,11.98
2023-05-14T04:11:08.469Z,12.02
2023-05-14T04:13:36.342Z,12.07
2023-05-14T04:16:04.833Z,12.08
2023-05-14T04:18:35.718Z,12.10
2023-05-14T04:21:03.752Z,12.02
2023-05-14T04:23:32.201Z,11.99
2023-05-14T04:26:00.263Z,11.69
2023-05-14T04:28:28.414Z,11.65
2023-05-14T04:30:56.257Z,11.60
2023-05-14T04:33:24.223Z,11.73
2023-05-14T04:35:53.025Z,11.64
2023-05-14T04:38:20.806Z,11.20
2023-05-14T04:40:48.827Z,11.04
2023-05-14T04:43:17.781Z,11.29
2023-05-14T04:45:46.071Z,11.27
2023-05-14T04:48:14.061Z,11.36
2023-05-14T04:50:42.105Z,11.49
2023-05-14T04:53:10.753Z,11.60
2023-05-14T04:55:38.774Z,11.36
2023-05-14T04:58:06.592Z,11.39
2023-05-14T05:00:34.587Z,11.46
2023-05-14T05:03:02.776Z,11.34
2023-05-14T05:05:30.930Z,11.37
2023-05-14T05:15:25.226Z,10.80
2023-05-14T05:17:54.560Z,10.89
2023-05-14T05:20:23.635Z,11.01
2023-05-14T05:22:51.963Z,10.94
2023-05-14T05:25:19.969Z,11.00
2023-05-14T05:27:48.091Z,11.04
2023-05-14T05:30:16.594Z,10.94
2023-05-14T05:32:45.010Z,10.52
2023-05-14T05:35:12.985Z,10.82
2023-05-14T05:37:41.750Z,10.93
2023-05-14T05:40:10.577Z,10.69
2023-05-14T05:42:38.411Z,10.76
2023-05-14T05:45:07.160Z,10.86
2023-05-14T05:47:35.554Z,10.81
2023-05-14T05:50:03.474Z,10.79
2023-05-14T05:52:31.668Z,10.58
2023-05-14T05:54:59.664Z,10.54
2023-05-14T05:57:27.771Z,10.47
2023-05-14T05:59:55.779Z,10.45
2023-05-14T06:02:25.498Z,10.52
2023-05-14T06:04:53.751Z,10.32
2023-05-14T06:07:22.192Z,10.28
2023-05-14T06:09:50.871Z,10.26
2023-05-14T06:12:19.319Z,10.27
2023-05-14T06:14:47.403Z,10.33
2023-05-14T06:17:15.427Z,10.35
2023-05-14T06:19:43.317Z,10.17
2023-05-14T06:22:11.326Z,10.11
2023-05-14T06:24:39.399Z,10.08
2023-05-14T06:27:07.261Z,9.86
2023-05-14T06:29:35.123Z,9.79
2023-05-14T06:32:04.844Z,9.67
2023-05-14T06:34:32.866Z,9.64
2023-05-14T06:37:03.093Z,9.53
2023-05-14T06:39:31.700Z,9.50
2023-05-14T06:42:00.060Z,9.50
2023-05-14T06:44:29.200Z,9.34
2023-05-14T06:46:57.606Z,9.43
2023-05-14T06:49:25.697Z,9.43
2023-05-14T06:51:54.659Z,9.59
2023-05-14T06:54:22.754Z,9.69
2023-05-14T06:56:51.037Z,9.78
2023-05-14T06:59:19.069Z,9.86
2023-05-14T07:01:47.270Z,9.88
2023-05-14T07:04:15.951Z,9.92
2023-05-14T07:06:44.651Z,9.92
2023-05-14T07:09:13.665Z,9.93
2023-05-14T07:11:42.752Z,10.07
2023-05-14T07:14:11.328Z,10.11
2023-05-14T07:16:40.516Z,10.18
2023-05-14T07:19:09.548Z,10.18
2023-05-14T07:21:38.267Z,10.10
2023-05-14T07:24:06.834Z,10.06
2023-05-14T07:26:35.343Z,9.93
2023-05-14T07:29:04.078Z,9.97
2023-05-14T07:31:32.680Z,9.98
2023-05-14T07:34:01.274Z,10.03
2023-05-14T07:36:29.892Z,9.99
2023-05-14T07:38:58.231Z,10.02
2023-05-14T07:41:26.411Z,10.08
2023-05-14T07:43:54.511Z,10.17
2023-05-14T07:46:24.274Z,10.14
2023-05-14T07:48:52.571Z,10.21
2023-05-14T07:51:21.200Z,10.17
2023-05-14T07:53:49.537Z,10.18
2023-05-14T07:56:17.612Z,10.23
2023-05-14T07:58:46.602Z,10.20
2023-05-14T08:01:14.626Z,10.18
2023-05-14T08:03:43.259Z,10.21
2023-05-14T08:06:12.132Z,10.15
2023-05-14T08:08:41.288Z,10.19
2023-05-14T08:11:09.531Z,10.24
2023-05-14T08:13:38.209Z,10.11
2023-05-14T08:16:07.454Z,10.27
2023-05-14T08:18:36.135Z,10.15
2023-05-14T08:21:04.642Z,10.30
2023-05-14T08:23:32.975Z,10.33
2023-05-14T08:26:04.228Z,10.40
2023-05-14T08:28:32.813Z,10.47
2023-05-14T08:31:01.207Z,10.44
2023-05-14T08:33:30.138Z,10.47
2023-05-14T08:36:00.831Z,10.22
2023-05-14T08:38:29.264Z,10.40
2023-05-14T08:41:01.323Z,10.35
2023-05-14T08:43:44.061Z,10.41
2023-05-14T08:46:15.461Z,10.32
2023-05-14T08:48:47.391Z,10.39
2023-05-14T08:51:16.138Z,10.44
2023-05-14T08:53:45.275Z,10.44
2023-05-14T08:56:16.929Z,10.52
2023-05-14T08:58:46.196Z,10.56
2023-05-14T09:01:14.602Z,10.57
2023-05-14T09:03:44.259Z,10.51
2023-05-14T09:06:14.753Z,10.49
2023-05-14T09:08:43.429Z,10.50
2023-05-14T09:11:11.936Z,10.34
2023-05-14T09:13:40.327Z,10.39
2023-05-14T09:16:08.758Z,10.47
2023-05-14T09:18:37.715Z,10.39
2023-05-14T09:21:06.479Z,10.43
2023-05-14T09:23:35.072Z,10.49
2023-05-14T09:26:06.591Z,10.51
2023-05-14T09:28:34.983Z,10.52
2023-05-14T09:31:03.458Z,10.35
2023-05-14T09:33:33.274Z,10.44
2023-05-14T09:36:02.861Z,10.40
2023-05-14T09:38:32.712Z,10.41
2023-05-14T09:41:01.576Z,10.39
2023-05-14T09:43:29.948Z,10.48
2023-05-14T09:45:58.478Z,10.56
2023-05-14T09:48:27.093Z,10.44
2023-05-14T09:50:56.095Z,10.39
2023-05-14T09:53:24.639Z,10.57
2023-05-14T09:55:53.132Z,10.65
2023-05-14T09:58:21.673Z,10.39
2023-05-14T10:00:52.444Z,10.53
2023-05-14T10:03:23.474Z,10.58
2023-05-14T10:05:52.896Z,10.58
2023-05-14T10:08:28.191Z,10.61
2023-05-14T10:10:59.783Z,10.63
2023-05-14T10:13:34.352Z,10.57
2023-05-14T10:16:22.336Z,10.42
2023-05-14T10:18:57.269Z,10.36
2023-05-14T10:21:31.932Z,10.44
2023-05-14T10:24:00.776Z,10.51
2023-05-14T10:26:29.600Z,10.13
2023-05-14T10:28:58.699Z,10.18
2023-05-14T10:31:47.521Z,10.29
2023-05-14T10:34:39.023Z,10.14
2023-05-14T10:37:11.237Z,10.15
2023-05-14T10:39:52.349Z,10.16
2023-05-14T10:42:36.237Z,10.36
2023-05-14T10:45:07.850Z,10.48
2023-05-14T10:47:38.006Z,10.40
2023-05-14T10:50:08.663Z,10.51
2023-05-14T10:52:37.744Z,10.60
2023-05-14T10:55:10.565Z,10.41
2023-05-14T10:57:42.385Z,10.33
2023-05-14T11:00:15.007Z,10.34
2023-05-14T11:02:45.380Z,10.56
2023-05-14T11:05:18.046Z,10.54
2023-05-14T11:07:50.858Z,10.59
2023-05-14T11:10:22.506Z,10.58
2023-05-14T11:12:53.273Z,10.42
2023-05-14T11:15:23.663Z,10.69
2023-05-14T11:17:54.167Z,10.67
2023-05-14T11:20:22.981Z,10.74
2023-05-14T11:22:55.046Z,10.70
2023-05-14T11:25:26.119Z,10.76
2023-05-14T11:27:58.665Z,10.59
2023-05-14T11:30:27.181Z,10.58
2023-05-14T11:32:56.317Z,10.81
2023-05-14T11:35:24.535Z,10.67
2023-05-14T11:37:53.247Z,10.49
2023-05-14T11:40:22.050Z,10.55
2023-05-14T11:42:53.834Z,10.54
2023-05-14T11:45:27.038Z,10.71
2023-05-14T11:47:55.553Z,10.62
2023-05-14T11:50:24.306Z,10.62
2023-05-14T11:52:56.909Z,10.65
2023-05-14T11:55:25.426Z,10.49
2023-05-14T11:57:54.654Z,10.76
2023-05-14T12:00:25.162Z,10.82
2023-05-14T12:02:55.325Z,11.05
2023-05-14T12:05:23.714Z,11.16
2023-05-14T12:07:52.440Z,11.11
2023-05-14T12:10:20.769Z,10.86
2023-05-14T12:12:50.170Z,10.87
2023-05-14T12:15:18.903Z,10.67
2023-05-14T12:17:52.282Z,10.67
2023-05-14T12:20:21.064Z,10.55
2023-05-14T12:22:49.595Z,10.38
2023-05-14T12:25:18.065Z,10.32
2023-05-14T12:27:46.935Z,10.39
2023-05-14T12:32:46.986Z,10.38
2023-05-14T12:35:15.558Z,10.29
2023-05-14T12:37:43.994Z,10.17
2023-05-14T12:40:13.344Z,10.10
2023-05-14T12:42:41.931Z,10.10
2023-05-14T12:45:10.782Z,10.29
2023-05-14T12:47:39.197Z,10.32
2023-05-14T12:50:08.200Z,10.21
2023-05-14T12:52:39.411Z,10.22
2023-05-14T12:55:09.841Z,10.27
2023-05-14T12:57:39.695Z,10.17
2023-05-14T13:00:14.228Z,10.14
2023-05-14T13:02:44.034Z,10.12
2023-05-14T13:05:13.242Z,10.30
2023-05-14T13:07:42.094Z,10.44
2023-05-14T13:10:12.096Z,10.41
2023-05-14T13:12:40.824Z,10.32
2023-05-14T13:15:10.587Z,10.49
2023-05-14T13:17:39.277Z,10.47
2023-05-14T13:20:08.699Z,10.46
2023-05-14T13:22:37.194Z,10.48
2023-05-14T13:25:06.475Z,10.39
2023-05-14T13:27:36.263Z,10.42
2023-05-14T13:30:05.097Z,10.46
2023-05-14T13:32:33.417Z,10.51
2023-05-14T13:35:01.710Z,10.60
2023-05-14T13:37:30.068Z,10.58
2023-05-14T13:39:59.070Z,10.53
2023-05-14T13:42:27.583Z,10.44
2023-05-14T13:44:56.698Z,10.55
2023-05-14T13:47:25.882Z,10.50
2023-05-14T13:49:54.736Z,10.66
2023-05-14T13:52:23.223Z,10.58
2023-05-14T13:54:51.822Z,10.66
2023-05-14T13:57:21.925Z,10.62
2023-05-14T13:59:50.826Z,10.58
2023-05-14T14:02:19.261Z,10.62
2023-05-14T14:04:47.969Z,10.52
2023-05-14T14:07:16.456Z,10.62
2023-05-14T14:09:45.563Z,10.66
2023-05-14T14:12:14.014Z,10.63
2023-05-14T14:14:42.586Z,10.57
2023-05-14T14:17:11.111Z,10.45
2023-05-14T14:19:39.626Z,10.57
2023-05-14T14:22:07.951Z,10.54
2023-05-14T14:24:36.557Z,10.41
2023-05-14T14:27:05.233Z,10.33
2023-05-14T14:29:34.768Z,10.30
2023-05-14T14:32:04.616Z,10.37
2023-05-14T14:34:33.213Z,10.28
2023-05-14T14:37:01.787Z,10.37
2023-05-14T14:39:30.431Z,10.36
2023-05-14T14:41:58.858Z,10.36
2023-05-14T14:44:27.718Z,10.42
2023-05-14T14:46:56.179Z,10.39
2023-05-14T14:49:24.497Z,10.42
2023-05-14T14:51:53.145Z,10.41
2023-05-14T14:54:22.517Z,10.46
2023-05-14T14:56:52.766Z,10.36
2023-05-14T14:59:21.483Z,10.39
2023-05-14T15:01:50.168Z,10.37
2023-05-14T15:04:18.808Z,10.42
2023-05-14T15:06:47.388Z,10.39
2023-05-14T15:09:15.842Z,10.44
2023-05-14T15:11:45.379Z,10.38
2023-05-14T15:14:13.993Z,10.36
2023-05-14T15:16:42.848Z,10.32
2023-05-14T15:19:11.462Z,10.33
2023-05-14T15:21:40.344Z,10.35
2023-05-14T15:24:11.721Z,10.33
2023-05-14T15:26:41.199Z,10.36
2023-05-14T15:29:09.759Z,10.27
2023-05-14T15:31:38.922Z,10.27
2023-05-14T15:34:07.519Z,10.11
2023-05-14T15:36:35.985Z,10.14
2023-05-14T15:39:04.512Z,10.29
2023-05-14T15:41:34.916Z,10.31
2023-05-14T15:44:03.529Z,10.11
2023-05-14T15:46:32.708Z,10.18
2023-05-14T15:49:01.192Z,10.19
2023-05-14T15:51:29.727Z,10.08
2023-05-14T15:53:58.158Z,9.89
2023-05-14T15:56:26.794Z,10.14
2023-05-14T15:58:55.126Z,10.06
2023-05-14T16:01:23.625Z,10.08
2023-05-14T16:03:53.355Z,9.93
2023-05-14T16:06:21.980Z,9.92
2023-05-14T16:08:50.836Z,9.97
2023-05-14T16:11:19.558Z,9.91
2023-05-14T16:13:48.225Z,10.00
2023-05-14T16:16:16.985Z,10.12
2023-05-14T16:18:45.470Z,10.13
2023-05-14T16:21:14.001Z,10.22
2023-05-14T16:23:42.392Z,10.21
2023-05-14T16:26:11.559Z,10.25
2023-05-14T16:28:41.691Z,10.29
2023-05-14T16:31:10.249Z,10.33
2023-05-14T16:33:38.594Z,10.39
2023-05-14T16:36:07.465Z,10.22
2023-05-14T16:38:41.444Z,10.38
2023-05-14T16:41:17.412Z,10.22
2023-05-14T16:43:45.904Z,10.17
2023-05-14T16:46:14.758Z,10.42
2023-05-14T16:48:45.174Z,10.48
2023-05-14T16:51:13.897Z,10.49
2023-05-14T16:53:42.472Z,10.48
2023-05-14T16:56:11.399Z,10.50
2023-05-14T16:58:39.702Z,10.52
2023-05-14T17:01:09.918Z,10.36
2023-05-14T17:03:38.647Z,10.22
2023-05-14T17:06:08.040Z,10.04
2023-05-14T17:08:36.499Z,10.10
2023-05-14T17:11:06.208Z,10.01
2023-05-14T17:13:34.610Z,9.99
2023-05-14T17:16:03.566Z,10.02
2023-05-14T17:18:33.115Z,10.07
2023-05-14T17:21:01.555Z,9.98
2023-05-14T17:23:29.833Z,10.06
2023-05-14T17:25:58.049Z,9.95
2023-05-14T17:28:28.392Z,9.92
2023-05-14T17:30:57.683Z,9.95
2023-05-14T17:33:26.006Z,9.95
2023-05-14T17:35:54.349Z,9.93
2023-05-14T17:38:22.863Z,10.04
2023-05-14T17:40:51.213Z,10.00
2023-05-14T17:43:19.504Z,10.01
2023-05-14T17:48:21.473Z,10.02
2023-05-14T17:50:50.023Z,10.03
2023-05-14T17:53:18.412Z,9.96
2023-05-14T17:55:46.896Z,10.01
2023-05-14T17:58:16.439Z,9.99
2023-05-14T18:00:45.175Z,10.07
2023-05-14T18:03:15.123Z,10.06
2023-05-14T18:05:43.485Z,10.02
2023-05-14T18:08:11.903Z,10.14
2023-05-14T18:10:40.534Z,9.98
2023-05-14T18:13:08.884Z,9.80
2023-05-14T18:15:37.515Z,9.96
2023-05-14T18:18:06.466Z,10.14
2023-05-14T18:20:35.565Z,10.28
2023-05-14T18:23:04.137Z,10.30
2023-05-14T18:25:32.812Z,10.38
2023-05-14T18:28:01.196Z,10.40
2023-05-14T18:30:29.125Z,10.41
2023-05-14T18:32:57.253Z,10.44
2023-05-14T18:35:25.567Z,10.44
2023-05-14T18:37:55.034Z,10.51
2023-05-14T18:40:23.020Z,10.31
2023-05-14T18:42:51.360Z,10.21
2023-05-14T18:45:19.521Z,10.12
2023-05-14T18:47:48.124Z,10.22
2023-05-14T18:50:16.269Z,10.19
2023-05-14T18:52:44.363Z,10.31
2023-05-14T18:59:44.824Z,10.41
2023-05-14T19:02:13.588Z,10.24
2023-05-14T19:04:51.717Z,10.39
2023-05-14T19:07:21.676Z,10.55
2023-05-14T19:09:49.850Z,10.53
2023-05-14T19:12:18.515Z,10.29
2023-05-14T19:14:46.852Z,10.30
2023-05-14T19:17:16.142Z,10.29
2023-05-14T19:19:45.863Z,10.34
2023-05-14T19:22:14.436Z,10.19
2023-05-14T19:24:42.957Z,10.33
2023-05-14T19:27:13.120Z,10.32
2023-05-14T19:29:41.679Z,10.23
2023-05-14T19:32:10.273Z,10.07
2023-05-14T19:34:38.795Z,10.28
2023-05-14T19:37:07.728Z,10.29
2023-05-14T19:39:36.101Z,10.29
2023-05-14T19:42:05.847Z,10.29
2023-05-14T19:44:34.284Z,10.35
2023-05-14T19:47:02.973Z,10.37
2023-05-14T19:49:31.379Z,10.43
2023-05-14T19:51:59.797Z,10.45
2023-05-14T19:54:28.348Z,10.43
2023-05-14T19:56:57.241Z,10.50
2023-05-14T19:59:25.809Z,10.47
2023-05-14T20:01:55.004Z,10.58
2023-05-14T20:04:23.789Z,10.49
2023-05-14T20:06:52.897Z,10.55
2023-05-14T20:09:21.192Z,10.66
2023-05-14T20:11:49.217Z,10.75
2023-05-14T20:14:18.527Z,10.66
2023-05-14T20:16:47.297Z,10.74
2023-05-14T20:19:16.676Z,10.74
2023-05-14T20:21:45.124Z,10.73
2023-05-14T20:24:13.099Z,10.70
2023-05-14T20:26:41.604Z,10.69
2023-05-14T20:29:11.753Z,10.74
2023-05-14T20:31:39.792Z,10.34
2023-05-14T20:34:08.077Z,10.30
2023-05-14T20:36:36.258Z,10.23
2023-05-14T20:39:06.316Z,10.33
2023-05-14T20:41:36.912Z,10.29
2023-05-14T20:44:04.984Z,10.33
2023-05-14T20:46:33.167Z,10.27
2023-05-14T20:49:02.427Z,10.33
2023-05-14T20:51:31.508Z,10.44
2023-05-14T20:53:59.399Z,10.47
2023-05-14T20:56:27.411Z,10.50
2023-05-14T20:58:55.488Z,10.63
2023-05-14T21:01:23.558Z,10.53
2023-05-14T21:03:51.895Z,10.52
2023-05-14T21:06:19.969Z,10.57
2023-05-14T21:08:47.920Z,10.67
2023-05-14T21:11:15.996Z,10.71
2023-05-14T21:13:44.803Z,10.71
2023-05-14T21:16:13.059Z,10.74
2023-05-14T21:18:41.205Z,10.68
2023-05-14T21:21:12.225Z,10.60
2023-05-14T21:23:40.197Z,10.53
2023-05-14T21:26:08.307Z,10.67
2023-05-14T21:28:36.283Z,10.67
2023-05-14T21:31:04.281Z,10.65
2023-05-14T21:33:32.341Z,10.71
2023-05-14T21:36:00.454Z,10.71
2023-05-14T21:38:28.426Z,10.77
2023-05-14T21:40:56.407Z,10.85
2023-05-14T21:43:24.555Z,10.95
2023-05-14T21:45:52.496Z,10.95
2023-05-14T21:48:21.801Z,11.00
2023-05-14T21:50:49.789Z,10.98
2023-05-14T21:53:17.740Z,10.99
2023-05-14T21:55:45.879Z,10.95
2023-05-14T21:58:13.923Z,10.96
2023-05-14T22:00:42.023Z,10.93
2023-05-14T22:03:10.090Z,10.89
2023-05-14T22:05:38.171Z,10.93
2023-05-14T22:08:06.600Z,10.79
2023-05-14T22:10:35.183Z,10.85
2023-05-14T22:13:03.068Z,10.92
2023-05-14T22:15:31.010Z,10.88
2023-05-14T22:17:59.049Z,10.81
2023-05-14T22:20:26.950Z,10.73
2023-05-14T22:22:55.076Z,10.50
2023-05-14T22:25:23.146Z,10.65
2023-05-14T22:27:51.405Z,10.68
2023-05-14T22:30:19.361Z,10.66
2023-05-14T22:32:47.684Z,10.56
2023-05-14T22:35:15.846Z,10.58
2023-05-14T22:37:44.163Z,10.50
2023-05-14T22:40:13.812Z,10.45
2023-05-14T22:42:41.844Z,10.51
2023-05-14T22:45:10.130Z,10.43
2023-05-14T22:47:39.043Z,10.44
2023-05-14T22:50:11.644Z,10.49
2023-05-14T22:52:40.542Z,10.46
2023-05-14T22:55:08.769Z,10.54
2023-05-14T22:57:36.760Z,10.40
2023-05-14T23:00:05.269Z,10.35
2023-05-14T23:02:33.523Z,10.15
2023-05-14T23:05:01.459Z,10.06
2023-05-14T23:07:29.585Z,9.90
2023-05-14T23:09:57.758Z,9.82
2023-05-14T23:12:26.284Z,9.76
2023-05-14T23:14:54.342Z,9.68
2023-05-14T23:17:22.506Z,9.51
2023-05-14T23:19:50.800Z,9.49
2023-05-14T23:22:18.912Z,9.49
2023-05-14T23:24:46.751Z,9.47
2023-05-14T23:27:14.954Z,9.49
2023-05-14T23:29:42.898Z,9.48
2023-05-14T23:32:13.300Z,9.56
2023-05-14T23:34:49.042Z,9.55
2023-05-14T23:37:17.260Z,9.46
2023-05-14T23:39:45.284Z,9.66
2023-05-14T23:42:13.152Z,9.78
2023-05-14T23:44:41.091Z,9.79
2023-05-14T23:47:09.024Z,9.97
2023-05-14T23:49:36.930Z,10.08
2023-05-14T23:52:05.407Z,10.09
2023-05-14T23:54:33.283Z,10.10
2023-05-14T23:57:02.951Z,10.12
2023-05-14T23:59:31.434Z,10.12
